sensor_id;sensor_type;location;lat;lon;timestamp;P1;durP1;ratioP1;P2;durP2;ratioP2
2674;SDS011;1347;42.122;24.746;2022-12-19T00:00:03;25.10;;;20.30;;
2674;SDS011;1347;42.122;24.746;2022-12-19T00:02:31;28.60;;;18.70;;
2674;SDS011;1347;42.122;24.746;2022-12-19T00:04:58;28.60;;;19.90;;
2674;SDS011;1347;42.122;24.746;2022-12-19T00:07:25;34.47;;;21.40;;
2674;SDS011;1347;42.122;24.746;2022-12-19T00:09:52;30.80;;;20.90;;
2674;SDS011;1347;42.122;24.746;2022-12-19T00:12:18;26.37;;;19.13;;
2674;SDS011;1347;42.122;24.746;2022-12-19T00:14:47;31.33;;;21.00;;
2674;SDS011;1347;42.122;24.746;2022-12-19T00:17:14;26.40;;;19.73;;
2674;SDS011;1347;42.122;24.746;2022-12-19T00:19:41;30.00;;;20.77;;
2674;SDS011;1347;42.122;24.746;2022-12-19T00:22:08;30.03;;;20.63;;
2674;SDS011;1347;42.122;24.746;2022-12-19T00:24:34;30.40;;;21.00;;
2674;SDS011;1347;42.122;24.746;2022-12-19T00:27:01;28.77;;;19.63;;
2674;SDS011;1347;42.122;24.746;2022-12-19T00:29:28;27.07;;;19.83;;
2674;SDS011;1347;42.122;24.746;2022-12-19T00:31:57;29.90;;;19.93;;
2674;SDS011;1347;42.122;24.746;2022-12-19T00:34:24;29.90;;;20.63;;
2674;SDS011;1347;42.122;24.746;2022-12-19T00:36:51;27.17;;;21.20;;
2674;SDS011;1347;42.122;24.746;2022-12-19T00:39:18;26.00;;;18.27;;
2674;SDS011;1347;42.122;24.746;2022-12-19T00:41:45;30.23;;;20.27;;
2674;SDS011;1347;42.122;24.746;2022-12-19T00:44:12;29.60;;;18.70;;
2674;SDS011;1347;42.122;24.746;2022-12-19T00:46:40;24.30;;;19.53;;
2674;SDS011;1347;42.122;24.746;2022-12-19T00:49:09;26.90;;;19.00;;
2674;SDS011;1347;42.122;24.746;2022-12-19T00:51:36;28.20;;;18.20;;
2674;SDS011;1347;42.122;24.746;2022-12-19T00:54:03;24.43;;;19.13;;
2674;SDS011;1347;42.122;24.746;2022-12-19T00:56:31;26.37;;;18.43;;
2674;SDS011;1347;42.122;24.746;2022-12-19T00:59:00;28.07;;;17.67;;
2674;SDS011;1347;42.122;24.746;2022-12-19T01:01:27;25.10;;;17.70;;
2674;SDS011;1347;42.122;24.746;2022-12-19T01:03:57;25.67;;;18.10;;
2674;SDS011;1347;42.122;24.746;2022-12-19T01:06:26;27.13;;;16.70;;
2674;SDS011;1347;42.122;24.746;2022-12-19T01:08:53;25.30;;;15.93;;
2674;SDS011;1347;42.122;24.746;2022-12-19T01:11:20;27.80;;;17.23;;
2674;SDS011;1347;42.122;24.746;2022-12-19T01:14:07;30.77;;;17.10;;
2674;SDS011;1347;42.122;24.746;2022-12-19T01:16:34;29.33;;;19.07;;
2674;SDS011;1347;42.122;24.746;2022-12-19T01:19:01;27.63;;;18.20;;
2674;SDS011;1347;42.122;24.746;2022-12-19T01:21:29;28.07;;;19.47;;
2674;SDS011;1347;42.122;24.746;2022-12-19T01:23:56;27.33;;;18.40;;
2674;SDS011;1347;42.122;24.746;2022-12-19T01:26:23;30.53;;;19.60;;
2674;SDS011;1347;42.122;24.746;2022-12-19T01:28:50;29.57;;;19.37;;
2674;SDS011;1347;42.122;24.746;2022-12-19T01:31:16;28.13;;;19.30;;
2674;SDS011;1347;42.122;24.746;2022-12-19T01:33:43;29.90;;;19.90;;
2674;SDS011;1347;42.122;24.746;2022-12-19T01:36:10;30.67;;;19.90;;
2674;SDS011;1347;42.122;24.746;2022-12-19T01:38:39;26.67;;;19.53;;
2674;SDS011;1347;42.122;24.746;2022-12-19T01:41:05;25.97;;;19.43;;
2674;SDS011;1347;42.122;24.746;2022-12-19T01:43:52;35.10;;;20.90;;
2674;SDS011;1347;42.122;24.746;2022-12-19T01:46:21;31.53;;;21.10;;
2674;SDS011;1347;42.122;24.746;2022-12-19T01:48:52;34.60;;;21.13;;
2674;SDS011;1347;42.122;24.746;2022-12-19T01:51:20;31.83;;;22.53;;
2674;SDS011;1347;42.122;24.746;2022-12-19T01:53:53;29.00;;;20.63;;
2674;SDS011;1347;42.122;24.746;2022-12-19T01:56:25;30.03;;;20.23;;
2674;SDS011;1347;42.122;24.746;2022-12-19T01:58:55;30.47;;;21.20;;
2674;SDS011;1347;42.122;24.746;2022-12-19T02:01:25;31.10;;;20.57;;
2674;SDS011;1347;42.122;24.746;2022-12-19T02:03:52;35.13;;;21.07;;
2674;SDS011;1347;42.122;24.746;2022-12-19T02:06:21;33.20;;;22.07;;
2674;SDS011;1347;42.122;24.746;2022-12-19T02:08:51;29.93;;;20.40;;
2674;SDS011;1347;42.122;24.746;2022-12-19T02:11:19;33.10;;;19.67;;
2674;SDS011;1347;42.122;24.746;2022-12-19T02:13:46;30.70;;;20.10;;
2674;SDS011;1347;42.122;24.746;2022-12-19T02:16:15;33.60;;;21.73;;
2674;SDS011;1347;42.122;24.746;2022-12-19T02:18:53;34.43;;;23.27;;
2674;SDS011;1347;42.122;24.746;2022-12-19T02:21:30;34.43;;;21.43;;
2674;SDS011;1347;42.122;24.746;2022-12-19T02:24:12;28.63;;;19.03;;
2674;SDS011;1347;42.122;24.746;2022-12-19T02:32:59;29.97;;;17.67;;
2674;SDS011;1347;42.122;24.746;2022-12-19T02:35:30;29.40;;;20.27;;
2674;SDS011;1347;42.122;24.746;2022-12-19T02:38:03;29.43;;;20.53;;
2674;SDS011;1347;42.122;24.746;2022-12-19T02:40:39;31.20;;;19.73;;
2674;SDS011;1347;42.122;24.746;2022-12-19T02:43:09;28.20;;;18.10;;
2674;SDS011;1347;42.122;24.746;2022-12-19T02:45:40;30.90;;;18.93;;
2674;SDS011;1347;42.122;24.746;2022-12-19T02:48:08;28.30;;;19.70;;
2674;SDS011;1347;42.122;24.746;2022-12-19T02:50:37;24.27;;;16.30;;
2674;SDS011;1347;42.122;24.746;2022-12-19T02:53:05;28.43;;;19.20;;
2674;SDS011;1347;42.122;24.746;2022-12-19T02:55:33;27.23;;;17.87;;
2674;SDS011;1347;42.122;24.746;2022-12-19T02:58:11;23.90;;;16.63;;
2674;SDS011;1347;42.122;24.746;2022-12-19T03:00:51;28.00;;;17.63;;
2674;SDS011;1347;42.122;24.746;2022-12-19T03:03:23;25.30;;;16.47;;
2674;SDS011;1347;42.122;24.746;2022-12-19T03:06:02;26.83;;;16.90;;
2674;SDS011;1347;42.122;24.746;2022-12-19T03:08:37;23.40;;;15.93;;
2674;SDS011;1347;42.122;24.746;2022-12-19T03:11:11;24.77;;;16.10;;
2674;SDS011;1347;42.122;24.746;2022-12-19T03:13:40;27.67;;;17.30;;
2674;SDS011;1347;42.122;24.746;2022-12-19T03:16:11;24.43;;;16.67;;
2674;SDS011;1347;42.122;24.746;2022-12-19T03:18:39;25.67;;;14.70;;
2674;SDS011;1347;42.122;24.746;2022-12-19T03:21:08;25.10;;;16.30;;
2674;SDS011;1347;42.122;24.746;2022-12-19T03:23:40;26.90;;;16.57;;
2674;SDS011;1347;42.122;24.746;2022-12-19T03:26:09;24.20;;;15.83;;
2674;SDS011;1347;42.122;24.746;2022-12-19T03:28:41;22.50;;;15.77;;
2674;SDS011;1347;42.122;24.746;2022-12-19T03:31:15;20.07;;;14.67;;
2674;SDS011;1347;42.122;24.746;2022-12-19T03:33:44;25.60;;;15.33;;
2674;SDS011;1347;42.122;24.746;2022-12-19T03:36:17;33.03;;;17.13;;
2674;SDS011;1347;42.122;24.746;2022-12-19T03:38:49;24.03;;;16.03;;
2674;SDS011;1347;42.122;24.746;2022-12-19T03:41:16;26.50;;;17.90;;
2674;SDS011;1347;42.122;24.746;2022-12-19T03:44:06;27.70;;;17.93;;
2674;SDS011;1347;42.122;24.746;2022-12-19T03:46:38;29.23;;;16.30;;
2674;SDS011;1347;42.122;24.746;2022-12-19T03:49:08;29.57;;;17.80;;
2674;SDS011;1347;42.122;24.746;2022-12-19T03:51:38;28.73;;;16.60;;
2674;SDS011;1347;42.122;24.746;2022-12-19T03:54:13;25.33;;;17.07;;
2674;SDS011;1347;42.122;24.746;2022-12-19T03:56:44;25.37;;;17.00;;
2674;SDS011;1347;42.122;24.746;2022-12-19T03:59:17;28.27;;;17.10;;
2674;SDS011;1347;42.122;24.746;2022-12-19T04:01:53;28.33;;;15.47;;
2674;SDS011;1347;42.122;24.746;2022-12-19T04:04:21;26.33;;;15.50;;
2674;SDS011;1347;42.122;24.746;2022-12-19T04:06:50;28.80;;;17.20;;
2674;SDS011;1347;42.122;24.746;2022-12-19T04:09:18;28.03;;;15.80;;
2674;SDS011;1347;42.122;24.746;2022-12-19T04:11:50;25.33;;;16.30;;
2674;SDS011;1347;42.122;24.746;2022-12-19T04:14:21;24.00;;;14.73;;
2674;SDS011;1347;42.122;24.746;2022-12-19T04:16:53;25.97;;;17.03;;
2674;SDS011;1347;42.122;24.746;2022-12-19T04:19:28;27.63;;;17.17;;
2674;SDS011;1347;42.122;24.746;2022-12-19T04:22:00;23.00;;;15.00;;
2674;SDS011;1347;42.122;24.746;2022-12-19T04:24:32;24.33;;;17.10;;
2674;SDS011;1347;42.122;24.746;2022-12-19T04:27:01;29.90;;;18.00;;
2674;SDS011;1347;42.122;24.746;2022-12-19T04:29:33;26.83;;;16.40;;
2674;SDS011;1347;42.122;24.746;2022-12-19T04:32:03;27.97;;;16.27;;
2674;SDS011;1347;42.122;24.746;2022-12-19T04:34:32;26.93;;;18.00;;
2674;SDS011;1347;42.122;24.746;2022-12-19T04:36:59;28.00;;;17.20;;
2674;SDS011;1347;42.122;24.746;2022-12-19T04:39:27;26.57;;;17.13;;
2674;SDS011;1347;42.122;24.746;2022-12-19T04:41:54;25.50;;;18.10;;
2674;SDS011;1347;42.122;24.746;2022-12-19T04:44:21;25.07;;;15.83;;
2674;SDS011;1347;42.122;24.746;2022-12-19T04:46:48;31.53;;;17.60;;
2674;SDS011;1347;42.122;24.746;2022-12-19T04:49:17;33.10;;;18.57;;
2674;SDS011;1347;42.122;24.746;2022-12-19T04:51:43;34.40;;;19.90;;
2674;SDS011;1347;42.122;24.746;2022-12-19T04:54:10;35.83;;;21.90;;
2674;SDS011;1347;42.122;24.746;2022-12-19T04:56:37;27.60;;;17.73;;
2674;SDS011;1347;42.122;24.746;2022-12-19T04:59:04;35.07;;;19.23;;
2674;SDS011;1347;42.122;24.746;2022-12-19T05:01:31;38.80;;;20.70;;
2674;SDS011;1347;42.122;24.746;2022-12-19T05:03:58;32.47;;;20.07;;
2674;SDS011;1347;42.122;24.746;2022-12-19T05:06:26;34.33;;;20.27;;
2674;SDS011;1347;42.122;24.746;2022-12-19T05:08:53;30.03;;;20.10;;
2674;SDS011;1347;42.122;24.746;2022-12-19T05:11:20;30.37;;;19.47;;
2674;SDS011;1347;42.122;24.746;2022-12-19T05:13:47;29.20;;;19.60;;
2674;SDS011;1347;42.122;24.746;2022-12-19T05:16:15;32.23;;;20.50;;
2674;SDS011;1347;42.122;24.746;2022-12-19T05:18:42;32.03;;;20.27;;
2674;SDS011;1347;42.122;24.746;2022-12-19T05:21:09;30.37;;;20.77;;
2674;SDS011;1347;42.122;24.746;2022-12-19T05:23:38;28.37;;;19.40;;
2674;SDS011;1347;42.122;24.746;2022-12-19T05:26:05;28.93;;;20.40;;
2674;SDS011;1347;42.122;24.746;2022-12-19T05:28:32;34.20;;;20.17;;
2674;SDS011;1347;42.122;24.746;2022-12-19T05:31:04;27.10;;;18.37;;
2674;SDS011;1347;42.122;24.746;2022-12-19T05:33:32;32.77;;;20.10;;
2674;SDS011;1347;42.122;24.746;2022-12-19T05:35:59;32.70;;;22.30;;
2674;SDS011;1347;42.122;24.746;2022-12-19T05:38:26;30.77;;;20.10;;
2674;SDS011;1347;42.122;24.746;2022-12-19T05:40:55;31.80;;;21.00;;
2674;SDS011;1347;42.122;24.746;2022-12-19T05:43:22;30.80;;;21.00;;
2674;SDS011;1347;42.122;24.746;2022-12-19T05:45:50;32.13;;;19.30;;
2674;SDS011;1347;42.122;24.746;2022-12-19T05:48:17;35.87;;;20.60;;
2674;SDS011;1347;42.122;24.746;2022-12-19T05:50:46;27.20;;;19.97;;
2674;SDS011;1347;42.122;24.746;2022-12-19T05:53:14;30.40;;;19.37;;
2674;SDS011;1347;42.122;24.746;2022-12-19T05:55:41;24.40;;;17.60;;
2674;SDS011;1347;42.122;24.746;2022-12-19T05:58:09;29.27;;;19.90;;
2674;SDS011;1347;42.122;24.746;2022-12-19T06:00:37;28.27;;;18.57;;
2674;SDS011;1347;42.122;24.746;2022-12-19T06:03:04;28.13;;;16.77;;
2674;SDS011;1347;42.122;24.746;2022-12-19T06:05:31;26.10;;;16.30;;
2674;SDS011;1347;42.122;24.746;2022-12-19T06:08:01;23.10;;;15.90;;
2674;SDS011;1347;42.122;24.746;2022-12-19T06:10:28;25.53;;;17.50;;
2674;SDS011;1347;42.122;24.746;2022-12-19T06:12:55;25.57;;;17.33;;
2674;SDS011;1347;42.122;24.746;2022-12-19T06:15:23;26.77;;;18.13;;
2674;SDS011;1347;42.122;24.746;2022-12-19T06:17:51;23.67;;;16.50;;
2674;SDS011;1347;42.122;24.746;2022-12-19T06:20:19;24.90;;;17.87;;
2674;SDS011;1347;42.122;24.746;2022-12-19T06:22:46;36.23;;;18.07;;
2674;SDS011;1347;42.122;24.746;2022-12-19T06:25:13;26.33;;;16.50;;
2674;SDS011;1347;42.122;24.746;2022-12-19T06:27:40;24.50;;;16.80;;
2674;SDS011;1347;42.122;24.746;2022-12-19T06:30:07;29.47;;;16.53;;
2674;SDS011;1347;42.122;24.746;2022-12-19T06:32:36;26.77;;;16.27;;
2674;SDS011;1347;42.122;24.746;2022-12-19T06:35:03;28.03;;;16.60;;
2674;SDS011;1347;42.122;24.746;2022-12-19T06:37:30;24.30;;;17.30;;
2674;SDS011;1347;42.122;24.746;2022-12-19T06:39:57;26.77;;;16.53;;
2674;SDS011;1347;42.122;24.746;2022-12-19T06:42:24;25.67;;;17.27;;
2674;SDS011;1347;42.122;24.746;2022-12-19T06:44:50;24.93;;;16.37;;
2674;SDS011;1347;42.122;24.746;2022-12-19T06:47:19;22.80;;;15.10;;
2674;SDS011;1347;42.122;24.746;2022-12-19T06:49:49;29.70;;;17.43;;
2674;SDS011;1347;42.122;24.746;2022-12-19T06:52:16;29.17;;;17.30;;
2674;SDS011;1347;42.122;24.746;2022-12-19T06:54:43;23.60;;;16.10;;
2674;SDS011;1347;42.122;24.746;2022-12-19T06:57:10;29.20;;;18.30;;
2674;SDS011;1347;42.122;24.746;2022-12-19T06:59:37;26.20;;;15.60;;
2674;SDS011;1347;42.122;24.746;2022-12-19T07:02:05;25.33;;;16.07;;
2674;SDS011;1347;42.122;24.746;2022-12-19T07:04:44;24.37;;;16.10;;
2674;SDS011;1347;42.122;24.746;2022-12-19T07:07:15;24.57;;;16.40;;
2674;SDS011;1347;42.122;24.746;2022-12-19T07:09:42;22.63;;;15.47;;
2674;SDS011;1347;42.122;24.746;2022-12-19T07:12:09;23.77;;;16.13;;
2674;SDS011;1347;42.122;24.746;2022-12-19T07:14:36;32.30;;;18.60;;
2674;SDS011;1347;42.122;24.746;2022-12-19T07:17:03;25.07;;;15.87;;
2674;SDS011;1347;42.122;24.746;2022-12-19T07:19:30;27.87;;;16.60;;
2674;SDS011;1347;42.122;24.746;2022-12-19T07:21:59;26.30;;;15.87;;
2674;SDS011;1347;42.122;24.746;2022-12-19T07:24:29;21.53;;;14.40;;
2674;SDS011;1347;42.122;24.746;2022-12-19T07:26:57;22.93;;;15.13;;
2674;SDS011;1347;42.122;24.746;2022-12-19T07:29:24;23.10;;;15.47;;
2674;SDS011;1347;42.122;24.746;2022-12-19T07:31:51;17.37;;;12.33;;
2674;SDS011;1347;42.122;24.746;2022-12-19T07:34:18;21.50;;;14.27;;
2674;SDS011;1347;42.122;24.746;2022-12-19T07:36:45;24.00;;;16.10;;
2674;SDS011;1347;42.122;24.746;2022-12-19T07:39:12;29.87;;;17.40;;
2674;SDS011;1347;42.122;24.746;2022-12-19T07:41:40;25.70;;;17.00;;
2674;SDS011;1347;42.122;24.746;2022-12-19T07:44:07;24.23;;;17.17;;
2674;SDS011;1347;42.122;24.746;2022-12-19T07:46:37;22.23;;;15.13;;
2674;SDS011;1347;42.122;24.746;2022-12-19T07:49:03;21.33;;;14.60;;
2674;SDS011;1347;42.122;24.746;2022-12-19T07:51:30;22.97;;;16.23;;
2674;SDS011;1347;42.122;24.746;2022-12-19T07:53:57;24.63;;;15.87;;
2674;SDS011;1347;42.122;24.746;2022-12-19T07:56:24;28.37;;;17.03;;
2674;SDS011;1347;42.122;24.746;2022-12-19T07:58:53;22.70;;;15.50;;
2674;SDS011;1347;42.122;24.746;2022-12-19T08:01:20;29.80;;;17.80;;
2674;SDS011;1347;42.122;24.746;2022-12-19T08:03:46;24.43;;;14.83;;
2674;SDS011;1347;42.122;24.746;2022-12-19T08:06:14;24.50;;;15.87;;
2674;SDS011;1347;42.122;24.746;2022-12-19T08:08:41;30.53;;;18.97;;
2674;SDS011;1347;42.122;24.746;2022-12-19T08:11:08;24.40;;;16.17;;
2674;SDS011;1347;42.122;24.746;2022-12-19T08:13:37;25.00;;;17.70;;
2674;SDS011;1347;42.122;24.746;2022-12-19T08:16:06;22.60;;;15.63;;
2674;SDS011;1347;42.122;24.746;2022-12-19T08:18:33;23.97;;;14.43;;
2674;SDS011;1347;42.122;24.746;2022-12-19T08:21:00;21.53;;;13.77;;
2674;SDS011;1347;42.122;24.746;2022-12-19T08:23:27;27.40;;;15.37;;
2674;SDS011;1347;42.122;24.746;2022-12-19T08:25:57;24.40;;;14.97;;
2674;SDS011;1347;42.122;24.746;2022-12-19T08:28:25;20.90;;;14.40;;
2674;SDS011;1347;42.122;24.746;2022-12-19T08:30:52;23.40;;;15.40;;
2674;SDS011;1347;42.122;24.746;2022-12-19T08:33:21;21.93;;;14.37;;
2674;SDS011;1347;42.122;24.746;2022-12-19T08:35:48;22.60;;;13.97;;
2674;SDS011;1347;42.122;24.746;2022-12-19T08:38:15;25.93;;;14.50;;
2674;SDS011;1347;42.122;24.746;2022-12-19T08:40:41;21.90;;;14.13;;
2674;SDS011;1347;42.122;24.746;2022-12-19T08:43:08;20.07;;;13.20;;
2674;SDS011;1347;42.122;24.746;2022-12-19T08:45:35;24.17;;;15.70;;
2674;SDS011;1347;42.122;24.746;2022-12-19T08:48:02;23.80;;;12.80;;
2674;SDS011;1347;42.122;24.746;2022-12-19T08:50:31;20.40;;;14.60;;
2674;SDS011;1347;42.122;24.746;2022-12-19T08:52:58;23.83;;;13.70;;
2674;SDS011;1347;42.122;24.746;2022-12-19T08:55:24;22.70;;;14.70;;
2674;SDS011;1347;42.122;24.746;2022-12-19T08:57:51;26.40;;;15.40;;
2674;SDS011;1347;42.122;24.746;2022-12-19T09:00:18;23.30;;;14.40;;
2674;SDS011;1347;42.122;24.746;2022-12-19T09:02:46;24.53;;;14.10;;
2674;SDS011;1347;42.122;24.746;2022-12-19T09:05:13;23.03;;;13.93;;
2674;SDS011;1347;42.122;24.746;2022-12-19T09:07:42;24.47;;;13.43;;
2674;SDS011;1347;42.122;24.746;2022-12-19T09:10:08;18.37;;;12.67;;
2674;SDS011;1347;42.122;24.746;2022-12-19T09:12:35;19.17;;;13.10;;
2674;SDS011;1347;42.122;24.746;2022-12-19T09:15:02;24.90;;;15.73;;
2674;SDS011;1347;42.122;24.746;2022-12-19T09:17:30;16.47;;;11.10;;
2674;SDS011;1347;42.122;24.746;2022-12-19T09:19:57;22.70;;;12.73;;
2674;SDS011;1347;42.122;24.746;2022-12-19T09:22:23;20.90;;;12.80;;
2674;SDS011;1347;42.122;24.746;2022-12-19T09:24:52;22.93;;;12.87;;
2674;SDS011;1347;42.122;24.746;2022-12-19T09:27:19;19.20;;;13.20;;
2674;SDS011;1347;42.122;24.746;2022-12-19T09:29:46;22.87;;;15.60;;
2674;SDS011;1347;42.122;24.746;2022-12-19T09:32:12;18.50;;;11.43;;
2674;SDS011;1347;42.122;24.746;2022-12-19T09:34:39;18.33;;;12.20;;
2674;SDS011;1347;42.122;24.746;2022-12-19T09:37:08;23.30;;;13.37;;
2674;SDS011;1347;42.122;24.746;2022-12-19T09:39:37;22.43;;;13.60;;
2674;SDS011;1347;42.122;24.746;2022-12-19T09:42:19;22.93;;;14.43;;
2674;SDS011;1347;42.122;24.746;2022-12-19T09:48:02;25.53;;;14.33;;
2674;SDS011;1347;42.122;24.746;2022-12-19T09:50:32;22.10;;;13.80;;
2674;SDS011;1347;42.122;24.746;2022-12-19T09:53:17;21.30;;;13.63;;
2674;SDS011;1347;42.122;24.746;2022-12-19T09:55:49;19.90;;;11.93;;
2674;SDS011;1347;42.122;24.746;2022-12-19T09:58:28;23.20;;;12.77;;
2674;SDS011;1347;42.122;24.746;2022-12-19T10:00:59;20.03;;;13.83;;
2674;SDS011;1347;42.122;24.746;2022-12-19T10:03:33;21.53;;;13.10;;
2674;SDS011;1347;42.122;24.746;2022-12-19T10:06:16;20.07;;;12.37;;
2674;SDS011;1347;42.122;24.746;2022-12-19T10:08:49;21.97;;;13.57;;
2674;SDS011;1347;42.122;24.746;2022-12-19T10:11:24;19.70;;;11.90;;
2674;SDS011;1347;42.122;24.746;2022-12-19T10:14:06;17.93;;;12.00;;
2674;SDS011;1347;42.122;24.746;2022-12-19T10:16:46;18.03;;;12.00;;
2674;SDS011;1347;42.122;24.746;2022-12-19T10:19:21;18.83;;;12.73;;
2674;SDS011;1347;42.122;24.746;2022-12-19T10:22:03;18.80;;;11.60;;
2674;SDS011;1347;42.122;24.746;2022-12-19T10:24:44;20.87;;;12.97;;
2674;SDS011;1347;42.122;24.746;2022-12-19T10:27:27;23.93;;;13.03;;
2674;SDS011;1347;42.122;24.746;2022-12-19T10:30:06;16.47;;;11.90;;
2674;SDS011;1347;42.122;24.746;2022-12-19T10:32:46;18.43;;;12.27;;
2674;SDS011;1347;42.122;24.746;2022-12-19T10:35:26;19.67;;;12.40;;
2674;SDS011;1347;42.122;24.746;2022-12-19T10:38:03;18.60;;;11.30;;
2674;SDS011;1347;42.122;24.746;2022-12-19T10:40:42;20.57;;;13.17;;
2674;SDS011;1347;42.122;24.746;2022-12-19T10:43:16;19.93;;;11.90;;
2674;SDS011;1347;42.122;24.746;2022-12-19T10:45:53;23.90;;;12.43;;
2674;SDS011;1347;42.122;24.746;2022-12-19T10:48:24;21.43;;;14.83;;
2674;SDS011;1347;42.122;24.746;2022-12-19T10:50:51;22.83;;;15.13;;
2674;SDS011;1347;42.122;24.746;2022-12-19T10:53:24;25.07;;;15.20;;
2674;SDS011;1347;42.122;24.746;2022-12-19T10:55:53;18.93;;;14.77;;
2674;SDS011;1347;42.122;24.746;2022-12-19T10:58:26;22.57;;;14.30;;
2674;SDS011;1347;42.122;24.746;2022-12-19T11:01:10;23.93;;;13.40;;
2674;SDS011;1347;42.122;24.746;2022-12-19T11:03:40;17.87;;;12.60;;
2674;SDS011;1347;42.122;24.746;2022-12-19T11:09:20;18.20;;;11.37;;
2674;SDS011;1347;42.122;24.746;2022-12-19T11:11:55;18.60;;;13.80;;
2674;SDS011;1347;42.122;24.746;2022-12-19T11:14:24;15.73;;;10.40;;
2674;SDS011;1347;42.122;24.746;2022-12-19T11:16:56;19.27;;;10.40;;
2674;SDS011;1347;42.122;24.746;2022-12-19T11:19:26;15.63;;;10.37;;
2674;SDS011;1347;42.122;24.746;2022-12-19T11:21:56;14.73;;;9.83;;
2674;SDS011;1347;42.122;24.746;2022-12-19T11:24:27;11.60;;;8.17;;
2674;SDS011;1347;42.122;24.746;2022-12-19T11:26:56;14.27;;;9.10;;
2674;SDS011;1347;42.122;24.746;2022-12-19T11:29:24;13.67;;;9.03;;
2674;SDS011;1347;42.122;24.746;2022-12-19T11:31:54;13.97;;;8.93;;
2674;SDS011;1347;42.122;24.746;2022-12-19T11:34:27;15.50;;;8.27;;
2674;SDS011;1347;42.122;24.746;2022-12-19T11:36:59;15.20;;;8.13;;
2674;SDS011;1347;42.122;24.746;2022-12-19T11:39:39;12.90;;;7.33;;
2674;SDS011;1347;42.122;24.746;2022-12-19T11:42:11;12.13;;;7.73;;
2674;SDS011;1347;42.122;24.746;2022-12-19T11:44:47;11.70;;;8.10;;
2674;SDS011;1347;42.122;24.746;2022-12-19T11:47:27;16.40;;;8.97;;
2674;SDS011;1347;42.122;24.746;2022-12-19T11:50:02;12.10;;;7.43;;
2674;SDS011;1347;42.122;24.746;2022-12-19T11:52:39;11.40;;;6.93;;
2674;SDS011;1347;42.122;24.746;2022-12-19T11:55:16;11.80;;;7.30;;
2674;SDS011;1347;42.122;24.746;2022-12-19T11:57:45;9.20;;;6.97;;
2674;SDS011;1347;42.122;24.746;2022-12-19T12:00:15;10.07;;;5.93;;
2674;SDS011;1347;42.122;24.746;2022-12-19T12:03:01;7.43;;;4.80;;
2674;SDS011;1347;42.122;24.746;2022-12-19T12:05:54;10.20;;;4.67;;
2674;SDS011;1347;42.122;24.746;2022-12-19T12:08:32;9.00;;;4.70;;
2674;SDS011;1347;42.122;24.746;2022-12-19T12:11:10;6.07;;;4.10;;
2674;SDS011;1347;42.122;24.746;2022-12-19T12:13:54;8.93;;;4.30;;
2674;SDS011;1347;42.122;24.746;2022-12-19T12:16:36;5.73;;;3.57;;
2674;SDS011;1347;42.122;24.746;2022-12-19T12:19:13;7.77;;;4.60;;
2674;SDS011;1347;42.122;24.746;2022-12-19T12:21:48;6.60;;;4.33;;
2674;SDS011;1347;42.122;24.746;2022-12-19T12:24:25;7.20;;;4.33;;
2674;SDS011;1347;42.122;24.746;2022-12-19T12:27:04;7.53;;;4.63;;
2674;SDS011;1347;42.122;24.746;2022-12-19T12:29:49;8.40;;;4.50;;
2674;SDS011;1347;42.122;24.746;2022-12-19T12:32:28;5.73;;;3.70;;
2674;SDS011;1347;42.122;24.746;2022-12-19T12:35:13;11.87;;;5.17;;
2674;SDS011;1347;42.122;24.746;2022-12-19T12:37:51;7.53;;;5.10;;
2674;SDS011;1347;42.122;24.746;2022-12-19T12:40:37;9.43;;;4.83;;
2674;SDS011;1347;42.122;24.746;2022-12-19T12:43:22;9.30;;;5.20;;
2674;SDS011;1347;42.122;24.746;2022-12-19T12:46:07;8.73;;;5.80;;
2674;SDS011;1347;42.122;24.746;2022-12-19T12:48:40;8.63;;;5.50;;
2674;SDS011;1347;42.122;24.746;2022-12-19T12:51:12;7.77;;;4.53;;
2674;SDS011;1347;42.122;24.746;2022-12-19T12:53:42;8.00;;;4.00;;
2674;SDS011;1347;42.122;24.746;2022-12-19T12:56:11;9.20;;;5.63;;
2674;SDS011;1347;42.122;24.746;2022-12-19T12:58:43;7.57;;;5.00;;
2674;SDS011;1347;42.122;24.746;2022-12-19T13:01:29;6.63;;;4.37;;
2674;SDS011;1347;42.122;24.746;2022-12-19T13:04:01;6.70;;;4.93;;
2674;SDS011;1347;42.122;24.746;2022-12-19T13:06:33;7.40;;;5.67;;
2674;SDS011;1347;42.122;24.746;2022-12-19T13:09:03;11.70;;;5.07;;
2674;SDS011;1347;42.122;24.746;2022-12-19T13:11:46;7.40;;;5.13;;
2674;SDS011;1347;42.122;24.746;2022-12-19T13:14:43;8.57;;;6.57;;
2674;SDS011;1347;42.122;24.746;2022-12-19T13:17:19;7.30;;;5.47;;
2674;SDS011;1347;42.122;24.746;2022-12-19T13:23:20;8.47;;;5.17;;
2674;SDS011;1347;42.122;24.746;2022-12-19T13:25:57;8.00;;;4.77;;
2674;SDS011;1347;42.122;24.746;2022-12-19T13:31:18;8.07;;;5.50;;
2674;SDS011;1347;42.122;24.746;2022-12-19T13:33:46;13.50;;;6.10;;
2674;SDS011;1347;42.122;24.746;2022-12-19T13:36:47;7.67;;;5.80;;
2674;SDS011;1347;42.122;24.746;2022-12-19T13:39:26;11.13;;;5.30;;
2674;SDS011;1347;42.122;24.746;2022-12-19T13:42:00;13.03;;;5.33;;
2674;SDS011;1347;42.122;24.746;2022-12-19T13:44:54;11.10;;;5.00;;
2674;SDS011;1347;42.122;24.746;2022-12-19T13:47:23;7.13;;;4.80;;
2674;SDS011;1347;42.122;24.746;2022-12-19T13:49:55;9.57;;;4.93;;
2674;SDS011;1347;42.122;24.746;2022-12-19T13:52:22;7.20;;;4.63;;
2674;SDS011;1347;42.122;24.746;2022-12-19T13:54:56;9.60;;;4.90;;
2674;SDS011;1347;42.122;24.746;2022-12-19T13:57:25;10.37;;;6.10;;
2674;SDS011;1347;42.122;24.746;2022-12-19T13:59:56;12.50;;;5.77;;
2674;SDS011;1347;42.122;24.746;2022-12-19T14:02:26;8.47;;;6.20;;
2674;SDS011;1347;42.122;24.746;2022-12-19T14:04:56;9.13;;;5.53;;
2674;SDS011;1347;42.122;24.746;2022-12-19T14:07:31;13.33;;;5.73;;
2674;SDS011;1347;42.122;24.746;2022-12-19T14:10:05;9.37;;;5.67;;
2674;SDS011;1347;42.122;24.746;2022-12-19T14:12:40;11.33;;;6.20;;
2674;SDS011;1347;42.122;24.746;2022-12-19T14:15:28;9.17;;;5.60;;
2674;SDS011;1347;42.122;24.746;2022-12-19T14:18:00;9.00;;;5.57;;
2674;SDS011;1347;42.122;24.746;2022-12-19T14:20:28;9.33;;;5.57;;
2674;SDS011;1347;42.122;24.746;2022-12-19T14:22:56;8.50;;;5.50;;
2674;SDS011;1347;42.122;24.746;2022-12-19T14:25:27;9.40;;;5.70;;
2674;SDS011;1347;42.122;24.746;2022-12-19T14:28:01;11.20;;;7.50;;
2674;SDS011;1347;42.122;24.746;2022-12-19T14:30:32;10.47;;;7.10;;
2674;SDS011;1347;42.122;24.746;2022-12-19T14:33:03;11.17;;;5.90;;
2674;SDS011;1347;42.122;24.746;2022-12-19T14:35:35;13.93;;;7.80;;
2674;SDS011;1347;42.122;24.746;2022-12-19T14:38:05;18.23;;;9.93;;
2674;SDS011;1347;42.122;24.746;2022-12-19T14:40:37;12.67;;;6.70;;
2674;SDS011;1347;42.122;24.746;2022-12-19T14:43:10;12.00;;;8.73;;
2674;SDS011;1347;42.122;24.746;2022-12-19T14:46:12;18.07;;;8.40;;
2674;SDS011;1347;42.122;24.746;2022-12-19T14:48:51;13.83;;;10.70;;
2674;SDS011;1347;42.122;24.746;2022-12-19T14:51:22;17.93;;;9.20;;
2674;SDS011;1347;42.122;24.746;2022-12-19T14:54:01;12.60;;;8.60;;
2674;SDS011;1347;42.122;24.746;2022-12-19T14:56:43;12.57;;;8.00;;
2674;SDS011;1347;42.122;24.746;2022-12-19T15:02:03;13.10;;;8.73;;
2674;SDS011;1347;42.122;24.746;2022-12-19T15:04:41;14.73;;;8.33;;
2674;SDS011;1347;42.122;24.746;2022-12-19T15:07:13;16.20;;;8.10;;
2674;SDS011;1347;42.122;24.746;2022-12-19T15:09:53;14.43;;;7.67;;
2674;SDS011;1347;42.122;24.746;2022-12-19T15:12:25;15.00;;;9.50;;
2674;SDS011;1347;42.122;24.746;2022-12-19T15:15:16;17.17;;;8.97;;
2674;SDS011;1347;42.122;24.746;2022-12-19T15:17:46;12.63;;;8.77;;
2674;SDS011;1347;42.122;24.746;2022-12-19T15:20:15;17.37;;;9.30;;
2674;SDS011;1347;42.122;24.746;2022-12-19T15:22:42;12.40;;;7.90;;